Latest Weather Observations for Mount Read

IDT60801

Issued at 6:02 pm EDT Monday 30 March 2015 (issued every 30 minutes, with the page automatically refreshed every 10 minutes)

About weather observations | Map of weather stations | Latest weather observations for TAS | Other Formats
Station Details ID: 097085 Name: MOUNT READ Lat: -41.84 Lon: 145.54 Height: 1119.5 m
Data from the previous 72 hours. | See also: Recent months at Mount Read
Date/Time
EDT
Temp
°C
App
Temp
°C
Dew
Point
Rel
Hum
%
Delta-T
°C
Wind Press
QNH
hPa
Press
MSL
hPa
Rain
since 9 am
mm
Dir
 
Spd
km/h
Gust
km/h
Spd
kts
Gust
kts
30/06:00pm 6.8 2.8 6.8 100 0.0 WNW 17 24 9 13 1022.7 1021.8 3.2
30/05:30pm 6.9 3.0 6.9 100 0.0 WNW 17 28 9 15 1022.5 1021.6 3.2
30/05:00pm 6.7 2.1 6.7 100 0.0 WNW 20 30 11 16 1022.5 1021.6 3.2
30/04:30pm 7.2 2.4 7.2 100 0.0 WNW 22 32 12 17 1022.2 1021.4 3.2
30/04:00pm 6.9 2.4 6.9 100 0.0 WNW 20 35 11 19 1022.1 1021.2 3.2
30/03:30pm 7.7 2.2 7.7 100 0.0 WNW 26 37 14 20 1022.4 1021.5 3.2
30/03:00pm 7.3 1.4 7.3 100 0.0 WNW 28 37 15 20 1022.0 1021.1 3.2
30/02:30pm 7.6 2.5 7.6 100 0.0 NW 24 39 13 21 1021.7 1020.8 3.2
30/02:00pm 7.2 1.2 7.2 100 0.0 NW 28 39 15 21 1021.6 1020.7 3.2
30/01:30pm 7.3 2.9 7.3 100 0.0 NW 20 32 11 17 1021.9 1021.0 3.2
30/01:00pm 7.0 3.5 7.0 100 0.0 NW 15 30 8 16 1022.1 1021.2 3.2
30/12:30pm 7.0 0.6 7.0 100 0.0 NW 30 44 16 24 1021.9 1021.0 3.2
30/12:00pm 6.9 0.1 6.9 100 0.0 WNW 32 54 17 29 1021.9 1021.0 3.2
30/11:50am 7.3 1.4 7.3 100 0.0 WNW 28 50 15 27 1021.8 1020.9 3.2
30/11:30am 7.1 -0.2 7.1 100 0.0 WNW 35 50 19 27 1021.9 1021.0 2.8
30/11:11am 7.6 1.0 7.6 100 0.0 WNW 32 52 17 28 1021.9 1021.0 2.8
30/11:00am 7.9 2.5 7.9 100 0.0 WNW 26 43 14 23 1022.0 1021.1 2.4
30/10:32am 7.8 0.6 7.8 100 0.0 WNW 35 54 19 29 1021.5 1020.6 2.2
30/10:30am 8.0 0.9 8.0 100 0.0 WNW 35 46 19 25 1021.7 1020.8 2.2
30/10:00am 7.9 1.7 7.9 100 0.0 NW 30 54 16 29 1021.2 1020.3 1.8
30/09:43am 8.1 2.3 8.1 100 0.0 NW 28 48 15 26 1021.1 1020.2 1.6
30/09:30am 8.0 3.4 8.0 100 0.0 NW 22 37 12 20 1021.0 1020.1 1.0
30/09:00am 7.7 2.2 7.7 100 0.0 NW 26 43 14 23 1020.6 1019.6 35.4
30/08:30am 7.5 2.7 7.5 100 0.0 NW 22 41 12 22 1020.5 1019.5 35.4
30/08:10am 7.4 1.5 7.4 100 0.0 NW 28 52 15 28 1020.2 1019.3 35.4
30/08:00am 7.2 2.4 7.2 100 0.0 NW 22 41 12 22 1020.3 1019.4 35.4
30/07:30am 6.8 0.7 6.8 100 0.0 NW 28 48 15 26 1020.0 1019.1 35.2
30/07:23am 6.6 0.5 6.6 100 0.0 NW 28 48 15 26 1020.0 1019.1 35.2
30/07:00am 6.5 0.4 6.5 100 0.0 NW 28 39 15 21 1019.9 1019.0 35.2
30/06:30am 6.4 -0.7 6.4 100 0.0 WNW 33 41 18 22 1019.7 1018.7 35.2
30/06:00am 6.1 -0.9 6.1 100 0.0 WNW 32 39 17 21 1019.7 1018.7 35.0
30/05:30am 6.4 -0.1 6.4 100 0.0 WNW 30 37 16 20 1019.6 1018.6 35.0
30/05:00am 6.2 -0.8 6.2 100 0.0 WNW 32 41 17 22 1019.6 1018.6 35.0
30/04:30am 6.4 -0.7 6.4 100 0.0 WNW 33 46 18 25 1019.7 1018.7 35.0
30/04:00am 6.7 -0.1 6.7 100 0.0 WNW 32 46 17 25 1019.8 1018.8 35.0
30/03:30am 6.5 -0.6 6.5 100 0.0 WNW 33 43 18 23 1019.6 1018.6 35.0
30/03:00am 6.7 -0.7 6.7 100 0.0 WNW 35 46 19 25 1019.8 1018.8 35.0
30/02:30am 6.9 -0.8 6.9 100 0.0 WNW 37 50 20 27 1019.8 1018.8 35.0
30/02:00am 7.3 0.0 7.3 100 0.0 WNW 35 52 19 28 1020.0 1019.1 35.0
30/01:37am 7.4 1.1 7.4 100 0.0 WNW 30 50 16 27 1019.8 1018.8 35.0
30/01:30am 7.5 0.7 7.5 100 0.0 WNW 33 44 18 24 1020.0 1019.1 35.0
30/01:00am 7.6 1.0 7.6 100 0.0 WNW 32 46 17 25 1019.9 1019.0 34.8
30/12:30am 7.7 0.9 7.7 100 0.0 WNW 33 54 18 29 1019.9 1019.0 34.8
30/12:05am 7.9 0.0 7.9 100 0.0 WNW 39 57 21 31 1019.7 1018.7 34.8
30/12:00am 7.8 0.3 7.8 100 0.0 WNW 37 52 20 28 1019.8 1018.8 34.8
 
Date/Time
EDT
Temp
°C
App
Temp
°C
Dew
Point
Rel
Hum
%
Delta-T
°C
Wind Press
QNH
hPa
Press
MSL
hPa
Rain
since 9 am
mm
Dir
 
Spd
km/h
Gust
km/h
Spd
kts
Gust
kts
29/11:43pm 7.8 0.3 7.8 100 0.0 NW 37 63 20 34 1019.8 1018.8 34.8
29/11:30pm 7.9 0.8 7.9 100 0.0 WNW 35 50 19 27 1019.9 1019.0 34.6
29/11:11pm 7.9 1.3 7.9 100 0.0 WNW 32 50 17 27 1020.0 1019.1 34.6
29/11:00pm 8.0 1.3 8.0 100 0.0 WNW 33 48 18 26 1020.2 1019.3 34.4
29/10:35pm 8.1 2.7 8.1 100 0.0 NW 26 46 14 25 1020.0 1019.1 34.4
29/10:30pm 8.2 4.2 8.2 100 0.0 NNW 19 44 10 24 1020.0 1019.1 34.4
29/10:00pm 8.2 2.5 8.2 100 0.0 NW 28 46 15 25 1019.9 1019.0 33.2
29/09:30pm 8.0 0.9 8.0 100 0.0 WNW 35 57 19 31 1019.7 1018.7 33.2
29/09:10pm 8.0 2.2 8.0 100 0.0 NW 28 52 15 28 1019.3 1018.4 32.8
29/09:00pm 8.0 3.4 8.0 100 0.0 NW 22 43 12 23 1019.6 1018.6 32.2
29/08:56pm 8.0 3.0 8.0 100 0.0 NW 24 46 13 25 1019.5 1018.5 32.2
29/08:30pm 7.9 1.3 7.9 100 0.0 WNW 32 50 17 27 1019.0 1018.0 31.6
29/08:00pm 7.9 1.7 7.9 100 0.0 NW 30 43 16 23 1019.0 1018.0 31.4
29/07:30pm 8.1 1.0 8.1 100 0.0 WNW 35 57 19 31 1018.8 1017.8 31.2
29/07:00pm 7.9 0.8 7.9 100 0.0 WNW 35 59 19 32 1018.5 1017.5 30.6
29/06:30pm 8.1 1.4 8.1 100 0.0 WNW 33 54 18 29 1018.3 1017.4 30.4
29/06:00pm 8.1 2.0 8.1 100 0.0 WNW 30 52 16 28 1018.0 1017.0 29.4
29/05:59pm 8.1 2.0 8.1 100 0.0 WNW 30 52 16 28 1017.9 1016.9 29.2
29/05:30pm 8.0 0.5 8.0 100 0.0 WNW 37 52 20 28 1017.9 1016.9 29.2
29/05:05pm 8.3 1.3 8.3 100 0.0 WNW 35 54 19 29 1017.6 1016.6 29.0
29/05:00pm 8.4 1.4 8.4 100 0.0 WNW 35 48 19 26 1017.8 1016.8 28.6
29/04:39pm 8.2 0.4 8.2 100 0.0 WNW 39 57 21 31 1017.3 1016.3 27.2
29/04:30pm 8.4 0.6 8.4 100 0.0 WNW 39 54 21 29 1017.6 1016.6 26.6
29/04:00pm 8.7 2.7 8.7 100 0.0 WNW 30 48 16 26 1017.7 1016.7 25.4
29/03:30pm 8.4 2.3 8.4 100 0.0 NW 30 48 16 26 1017.4 1016.4 21.4
29/03:00pm 8.5 1.9 8.5 100 0.0 WNW 33 54 18 29 1017.6 1016.6 17.8
29/02:35pm 8.5 2.1 8.5 100 0.0 WNW 32 52 17 28 1017.7 1016.7 15.2
29/02:30pm 8.4 1.0 8.4 100 0.0 WNW 37 50 20 27 1017.7 1016.7 15.0
29/02:00pm 8.2 2.5 8.2 100 0.0 WNW 28 50 15 27 1017.6 1016.6 11.6
29/01:39pm 8.0 0.1 8.0 100 0.0 NW 39 59 21 32 1017.4 1016.4 9.8
29/01:30pm 7.9 0.8 7.9 100 0.0 NW 35 48 19 26 1017.6 1016.6 9.2
29/01:00pm 7.7 0.9 7.7 100 0.0 WNW 33 57 18 31 1017.6 1016.6 6.4
29/12:30pm 7.4 0.5 7.4 100 0.0 NW 33 69 18 37 1017.2 1016.2 4.2
29/12:00pm 7.2 -0.1 7.2 100 0.0 NW 35 63 19 34 1017.2 1016.2 3.2
29/11:30am 6.8 -0.6 6.8 100 0.0 WNW 35 63 19 34 1017.7 1016.7 2.6
29/11:00am 6.7 -1.1 6.7 100 0.0 WNW 37 65 20 35 1017.9 1016.9 2.6
29/10:30am 6.8 -0.6 6.8 100 0.0 WNW 35 57 19 31 1017.9 1016.9 2.4
29/10:00am 6.6 -0.5 6.5 99 0.0 WNW 33 54 18 29 1017.6 1016.6 1.8
29/09:38am 6.4 0.2 6.3 99 0.0 NW 28 46 15 25 1017.4 1016.4 1.0
29/09:30am 6.3 0.5 6.2 99 0.0 NW 26 43 14 23 1017.3 1016.3 0.8
29/09:00am 6.0 -1.2 5.9 99 0.0 NW 33 57 18 31 1017.2 1016.2 10.4
29/08:44am 5.9 -1.1 5.8 99 0.0 NW 32 54 17 29 1017.0 1016.0 10.2
29/08:30am 5.9 -1.1 5.8 99 0.0 WNW 32 43 17 23 1017.1 1016.1 9.8
29/08:00am 5.7 -1.4 5.6 99 0.0 NW 32 61 17 33 1017.1 1016.1 9.2
29/07:33am 5.5 -2.6 5.4 99 0.0 WNW 37 56 20 30 1016.7 1015.6 9.0
29/07:30am 5.5 -2.2 5.4 99 0.0 WNW 35 56 19 30 1016.7 1015.6 9.0
29/07:06am 5.3 -1.1 5.2 99 0.0 NW 28 52 15 28 1016.6 1015.5 8.6
29/07:00am 5.3 -0.3 5.2 99 0.0 NNW 24 46 13 25 1016.4 1015.4 8.4
29/06:30am 5.1 -1.7 5.0 99 0.0 NW 30 56 16 30 1016.7 1015.6 8.0
29/06:07am 5.2 -2.0 5.1 99 0.0 NW 32 52 17 28 1016.7 1015.6 7.8
29/06:00am 5.2 -1.2 5.1 99 0.0 NW 28 50 15 27 1016.7 1015.6 7.8
29/05:34am 5.1 -1.3 5.0 99 0.0 NW 28 50 15 27 1016.4 1015.4 7.2
29/05:30am 5.0 -1.5 4.9 99 0.0 NW 28 46 15 25 1016.4 1015.4 7.2
29/05:13am 5.0 -1.5 4.9 99 0.0 NNW 28 46 15 25 1016.3 1015.3 6.8
29/05:00am 4.9 -0.8 4.8 99 0.0 NW 24 41 13 22 1016.3 1015.3 6.6
29/04:30am 4.9 -0.8 4.8 99 0.0 NNW 24 33 13 18 1016.6 1015.5 6.0
29/04:00am 4.8 -0.2 4.7 99 0.0 NNW 20 33 11 18 1016.8 1015.8 5.4
29/03:30am 4.7 -0.7 4.6 99 0.0 NNW 22 35 12 19 1016.8 1015.8 4.6
29/03:00am 4.5 -1.7 4.4 99 0.0 NNW 26 37 14 20 1016.4 1015.4 3.8
29/02:30am 4.1 -2.5 4.0 99 0.0 NNW 28 33 15 18 1016.7 1015.6 3.4
29/02:00am 4.0 -1.9 3.9 99 0.0 NNW 24 37 13 20 1017.0 1016.0 3.0
29/01:30am 4.0 -1.9 3.9 99 0.0 NNW 24 41 13 22 1017.4 1016.4 2.8
29/01:00am 4.0 -1.9 3.9 99 0.0 NNW 24 39 13 21 1017.7 1016.7 2.8
29/12:34am 4.1 -2.5 4.0 99 0.0 NNW 28 46 15 25 1017.8 1016.8 2.6
29/12:30am 4.1 -2.5 4.0 99 0.0 NNW 28 44 15 24 1017.8 1016.8 2.6
29/12:00am 4.3 -1.9 4.2 99 0.0 NNW 26 37 14 20 1018.0 1017.0 2.6
 
Date/Time
EDT
Temp
°C
App
Temp
°C
Dew
Point
Rel
Hum
%
Delta-T
°C
Wind Press
QNH
hPa
Press
MSL
hPa
Rain
since 9 am
mm
Dir
 
Spd
km/h
Gust
km/h
Spd
kts
Gust
kts
28/11:30pm 4.3 -1.9 4.2 99 0.0 NNW 26 35 14 19 1018.5 1017.5 2.4
28/11:00pm 4.3 -1.9 4.2 99 0.0 NNW 26 35 14 19 1018.6 1017.6 2.2
28/10:30pm 4.2 -0.9 4.1 99 0.0 NW 20 32 11 17 1018.8 1017.8 2.2
28/10:00pm 4.1 -3.5 4.0 99 0.0 WNW 33 41 18 22 1019.0 1018.0 2.0
28/09:30pm 4.1 -2.9 4.0 99 0.0 NW 30 37 16 20 1019.0 1018.0 2.0
28/09:00pm 4.3 -2.3 4.2 99 0.0 NW 28 35 15 19 1019.0 1018.0 1.8
28/08:30pm 4.5 -2.1 4.4 99 0.0 NW 28 35 15 19 1019.1 1018.2 1.8
28/08:00pm 4.8 -0.9 4.7 99 0.0 NW 24 30 13 16 1019.2 1018.3 1.6
28/07:30pm 4.9 -0.8 4.8 99 0.0 NW 24 33 13 18 1019.2 1018.3 1.0
28/07:00pm 5.0 -0.3 4.9 99 0.0 WNW 22 28 12 15 1019.2 1018.3 1.0
28/06:30pm 5.3 0.4 5.2 99 0.0 NW 20 32 11 17 1019.3 1018.4 0.8
28/06:00pm 5.6 2.5 5.5 99 0.0 NNW 11 24 6 13 1019.3 1018.4 0.6
28/05:30pm 5.9 2.5 5.8 99 0.0 NNW 13 24 7 13 1019.3 1018.4 0.6
28/05:00pm 5.8 2.7 5.7 99 0.0 NW 11 22 6 12 1020.0 1019.1 0.6
28/04:30pm 6.0 1.8 5.9 99 0.0 WNW 17 26 9 14 1020.1 1019.2 0.6
28/04:00pm 6.3 2.2 6.3 100 0.0 WNW 17 24 9 13 1020.1 1019.2 0.6
28/03:30pm 6.1 3.5 6.1 100 0.0 WNW 9 17 5 9 1020.3 1019.4 0.6
28/03:00pm 6.0 2.2 6.0 100 0.0 WNW 15 24 8 13 1020.3 1019.4 0.6
28/02:30pm 6.0 2.6 5.9 99 0.0 WNW 13 19 7 10 1020.6 1019.6 0.6
28/02:00pm 5.5 3.1 5.4 99 0.0 WNW 7 13 4 7 1020.8 1019.9 0.6
28/01:30pm 5.7 3.0 5.6 99 0.0 NW 9 17 5 9 1021.1 1020.2 0.6
28/01:00pm 5.8 2.4 5.7 99 0.0 W 13 19 7 10 1021.4 1020.4 0.6
28/12:30pm 5.5 1.6 5.5 100 0.0 W 15 24 8 13 1021.6 1020.7 0.6
28/12:00pm 5.8 2.8 5.8 100 0.0 WNW 11 19 6 10 1021.7 1020.8 0.4
28/11:30am 5.6 2.5 5.6 100 0.0 WSW 11 17 6 9 1021.8 1020.9 0.2
28/11:00am 5.5 3.1 5.4 99 0.0 W 7 13 4 7 1021.9 1021.0 0.2
28/10:30am 5.5 2.8 5.4 99 0.0 WSW 9 17 5 9 1021.9 1021.0 0.2
28/10:00am 5.4 2.2 5.3 99 0.0 SW 11 17 6 9 1021.9 1021.0 0.0
28/09:30am 5.0 1.0 4.9 99 0.0 SW 15 20 8 11 1021.6 1020.7 0.0
28/09:00am 4.4 1.1 4.3 99 0.0 WSW 11 15 6 8 1021.4 1020.4 10.2
28/08:30am 4.2 0.4 4.1 99 0.0 WSW 13 17 7 9 1021.1 1020.2 10.2
28/08:00am 3.8 0.3 3.7 99 0.0 WSW 11 17 6 9 1020.9 1020.0 10.2
28/07:30am 3.6 0.1 3.5 99 0.0 SW 11 15 6 8 1020.7 1019.8 10.2
28/07:00am 3.5 -0.8 3.4 99 0.0 SW 15 20 8 11 1020.6 1019.6 10.2
28/06:30am 3.5 -0.4 3.4 99 0.0 SW 13 20 7 11 1020.3 1019.4 10.2
28/06:00am 3.5 -1.2 3.4 99 0.0 SW 17 24 9 13 1020.3 1019.4 10.2
28/05:30am 3.4 -2.2 3.3 99 0.0 SSW 22 26 12 14 1020.1 1019.2 10.0
28/05:00am 3.5 -1.2 3.4 99 0.0 SSW 17 20 9 11 1020.2 1019.3 10.0
28/04:30am 3.4 -1.7 3.3 99 0.0 SW 19 26 10 14 1020.2 1019.3 9.8
28/04:00am 3.5 -1.5 3.4 99 0.0 SW 19 24 10 13 1020.2 1019.3 9.6
28/03:30am 3.3 -3.5 3.2 99 0.0 SW 28 33 15 18 1020.1 1019.2 9.6
28/03:00am 3.4 -1.8 3.3 99 0.0 SSW 20 30 11 16 1020.3 1019.4 9.6
28/02:30am 3.5 -2.1 3.4 99 0.0 SSW 22 28 12 15 1020.7 1019.8 9.4
28/02:00am 3.5 -2.9 3.4 99 0.0 SW 26 35 14 19 1020.7 1019.8 9.4
28/01:30am 3.5 -2.9 3.4 99 0.0 SSW 26 35 14 19 1020.6 1019.6 9.4
28/01:00am 3.8 -2.1 3.7 99 0.0 SSW 24 32 13 17 1020.6 1019.6 9.2
28/12:30am 3.8 -2.1 3.7 99 0.0 SSW 24 30 13 16 1020.8 1019.9 9.0
28/12:00am 3.7 -2.3 3.6 99 0.0 SSW 24 30 13 16 1020.8 1019.9 8.8
 
Date/Time
EDT
Temp
°C
App
Temp
°C
Dew
Point
Rel
Hum
%
Delta-T
°C
Wind Press
QNH
hPa
Press
MSL
hPa
Rain
since 9 am
mm
Dir
 
Spd
km/h
Gust
km/h
Spd
kts
Gust
kts
27/11:30pm 3.8 -1.2 3.7 99 0.0 SSW 19 26 10 14 1021.2 1020.3 8.8
27/11:00pm 4.0 -2.7 3.9 99 0.0 SSW 28 41 15 22 1021.0 1020.1 8.6
27/10:30pm 4.1 -3.3 4.0 99 0.0 SSW 32 37 17 20 1020.8 1019.9 8.4
27/10:00pm 4.2 -3.7 4.1 99 0.0 SSW 35 41 19 22 1020.6 1019.6 8.2
27/09:30pm 4.3 -3.6 4.2 99 0.0 SSW 35 43 19 23 1020.3 1019.4 8.2
27/09:00pm 4.4 -3.5 4.3 99 0.0 SSW 35 43 19 23 1020.2 1019.3 8.0
27/08:30pm 4.5 -3.8 4.4 99 0.0 SSW 37 44 20 24 1019.9 1019.0 7.8
27/08:00pm 4.7 -4.7 4.6 99 0.0 SSW 43 52 23 28 1019.3 1018.4 7.6
27/07:30pm 4.8 -4.2 4.7 99 0.0 SSW 41 52 22 28 1019.0 1018.0 7.2
27/07:00pm 4.9 -4.1 4.8 99 0.0 SSW 41 54 22 29 1018.7 1017.7 7.0
27/06:30pm 5.1 -4.4 5.0 99 0.0 SSW 44 59 24 32 1018.1 1017.1 7.0

Other Formats:

Comma delimited format used in spreadsheet applications
http://www.bom.gov.au/fwo/IDT60801/IDT60801.95952.axf

JavaScript Object Notation format (JSON) in row-major order
http://www.bom.gov.au/fwo/IDT60801/IDT60801.95952.json